sensor_id;sensor_type;location;lat;lon;timestamp;P1;durP1;ratioP1;P2;durP2;ratioP2
69917;SDS011;57203;42.672;23.334;2022-08-16T00:00:23;8.4;;;6.5;;
69917;SDS011;57203;42.672;23.334;2022-08-16T00:01:21;13.3;;;7.0;;
69917;SDS011;57203;42.672;23.334;2022-08-16T00:02:21;13.3;;;7.6;;
69917;SDS011;57203;42.672;23.334;2022-08-16T00:03:22;9.5;;;6.8;;
69917;SDS011;57203;42.672;23.334;2022-08-16T00:04:22;9.1;;;7.1;;
69917;SDS011;57203;42.672;23.334;2022-08-16T00:05:23;9.1;;;6.8;;
69917;SDS011;57203;42.672;23.334;2022-08-16T00:06:22;9.1;;;7.4;;
69917;SDS011;57203;42.672;23.334;2022-08-16T00:07:23;11.0;;;7.2;;
69917;SDS011;57203;42.672;23.334;2022-08-16T00:08:23;11.2;;;7.3;;
69917;SDS011;57203;42.672;23.334;2022-08-16T00:09:23;9.9;;;7.2;;
69917;SDS011;57203;42.672;23.334;2022-08-16T00:10:24;9.5;;;7.3;;
69917;SDS011;57203;42.672;23.334;2022-08-16T00:11:23;10.8;;;7.1;;
69917;SDS011;57203;42.672;23.334;2022-08-16T00:12:24;9.4;;;7.4;;
69917;SDS011;57203;42.672;23.334;2022-08-16T00:13:24;9.9;;;7.2;;
69917;SDS011;57203;42.672;23.334;2022-08-16T00:14:25;9.9;;;8.1;;
69917;SDS011;57203;42.672;23.334;2022-08-16T00:15:25;11.5;;;7.9;;
69917;SDS011;57203;42.672;23.334;2022-08-16T00:16:26;11.1;;;8.1;;
69917;SDS011;57203;42.672;23.334;2022-08-16T00:17:25;11.4;;;7.6;;
69917;SDS011;57203;42.672;23.334;2022-08-16T00:18:25;10.5;;;8.2;;
69917;SDS011;57203;42.672;23.334;2022-08-16T00:19:26;10.5;;;7.8;;
69917;SDS011;57203;42.672;23.334;2022-08-16T00:20:25;11.3;;;8.1;;
69917;SDS011;57203;42.672;23.334;2022-08-16T00:21:26;10.2;;;7.4;;
69917;SDS011;57203;42.672;23.334;2022-08-16T00:22:26;10.5;;;7.8;;
69917;SDS011;57203;42.672;23.334;2022-08-16T00:23:26;10.5;;;7.5;;
69917;SDS011;57203;42.672;23.334;2022-08-16T00:24:27;10.0;;;7.7;;
69917;SDS011;57203;42.672;23.334;2022-08-16T00:25:27;12.0;;;7.4;;
69917;SDS011;57203;42.672;23.334;2022-08-16T00:26:27;12.4;;;7.8;;
69917;SDS011;57203;42.672;23.334;2022-08-16T00:27:27;10.9;;;7.7;;
69917;SDS011;57203;42.672;23.334;2022-08-16T00:28:27;10.6;;;6.7;;
69917;SDS011;57203;42.672;23.334;2022-08-16T00:29:27;9.4;;;7.2;;
69917;SDS011;57203;42.672;23.334;2022-08-16T00:30:28;9.6;;;6.4;;
69917;SDS011;57203;42.672;23.334;2022-08-16T00:31:28;8.7;;;6.9;;
69917;SDS011;57203;42.672;23.334;2022-08-16T00:35:29;9.2;;;7.4;;
69917;SDS011;57203;42.672;23.334;2022-08-16T00:36:29;11.2;;;6.4;;
69917;SDS011;57203;42.672;23.334;2022-08-16T00:37:29;9.2;;;6.2;;
69917;SDS011;57203;42.672;23.334;2022-08-16T00:38:29;10.0;;;7.1;;
69917;SDS011;57203;42.672;23.334;2022-08-16T00:39:30;10.0;;;6.6;;
69917;SDS011;57203;42.672;23.334;2022-08-16T00:40:32;8.7;;;6.8;;
69917;SDS011;57203;42.672;23.334;2022-08-16T00:41:30;9.4;;;7.2;;
69917;SDS011;57203;42.672;23.334;2022-08-16T00:43:32;9.0;;;6.4;;
69917;SDS011;57203;42.672;23.334;2022-08-16T00:44:31;9.3;;;6.9;;
69917;SDS011;57203;42.672;23.334;2022-08-16T00:45:33;10.3;;;7.3;;
69917;SDS011;57203;42.672;23.334;2022-08-16T00:46:33;10.3;;;6.5;;
69917;SDS011;57203;42.672;23.334;2022-08-16T00:47:31;8.9;;;7.0;;
69917;SDS011;57203;42.672;23.334;2022-08-16T00:48:32;8.9;;;6.8;;
69917;SDS011;57203;42.672;23.334;2022-08-16T00:49:32;8.7;;;6.6;;
69917;SDS011;57203;42.672;23.334;2022-08-16T00:50:33;10.4;;;7.2;;
69917;SDS011;57203;42.672;23.334;2022-08-16T00:51:32;10.4;;;7.4;;
69917;SDS011;57203;42.672;23.334;2022-08-16T00:52:32;9.5;;;6.8;;
69917;SDS011;57203;42.672;23.334;2022-08-16T00:53:33;10.7;;;7.3;;
69917;SDS011;57203;42.672;23.334;2022-08-16T00:54:33;10.4;;;7.7;;
69917;SDS011;57203;42.672;23.334;2022-08-16T00:55:34;9.1;;;6.6;;
69917;SDS011;57203;42.672;23.334;2022-08-16T00:56:37;8.2;;;6.5;;
69917;SDS011;57203;42.672;23.334;2022-08-16T00:58:35;9.2;;;6.9;;
69917;SDS011;57203;42.672;23.334;2022-08-16T00:59:35;10.8;;;7.5;;
69917;SDS011;57203;42.672;23.334;2022-08-16T01:00:35;10.8;;;7.7;;
69917;SDS011;57203;42.672;23.334;2022-08-16T01:01:35;10.1;;;7.0;;
69917;SDS011;57203;42.672;23.334;2022-08-16T01:02:35;10.1;;;7.4;;
69917;SDS011;57203;42.672;23.334;2022-08-16T01:03:36;11.8;;;7.6;;
69917;SDS011;57203;42.672;23.334;2022-08-16T01:04:35;10.1;;;7.5;;
69917;SDS011;57203;42.672;23.334;2022-08-16T01:05:35;10.1;;;7.3;;
69917;SDS011;57203;42.672;23.334;2022-08-16T01:06:36;9.3;;;7.4;;
69917;SDS011;57203;42.672;23.334;2022-08-16T01:07:36;10.3;;;7.0;;
69917;SDS011;57203;42.672;23.334;2022-08-16T01:09:37;10.2;;;7.3;;
69917;SDS011;57203;42.672;23.334;2022-08-16T01:10:37;8.8;;;6.8;;
69917;SDS011;57203;42.672;23.334;2022-08-16T01:11:37;8.8;;;7.4;;
69917;SDS011;57203;42.672;23.334;2022-08-16T01:12:37;11.0;;;7.1;;
69917;SDS011;57203;42.672;23.334;2022-08-16T01:13:37;9.6;;;7.6;;
69917;SDS011;57203;42.672;23.334;2022-08-16T01:14:40;10.4;;;7.0;;
69917;SDS011;57203;42.672;23.334;2022-08-16T01:15:38;9.6;;;7.5;;
69917;SDS011;57203;42.672;23.334;2022-08-16T01:16:38;9.6;;;7.2;;
69917;SDS011;57203;42.672;23.334;2022-08-16T01:17:38;10.6;;;7.3;;
69917;SDS011;57203;42.672;23.334;2022-08-16T01:18:40;9.7;;;7.1;;
69917;SDS011;57203;42.672;23.334;2022-08-16T01:19:40;9.7;;;7.5;;
69917;SDS011;57203;42.672;23.334;2022-08-16T01:20:39;9.7;;;6.7;;
69917;SDS011;57203;42.672;23.334;2022-08-16T01:22:40;11.3;;;7.5;;
69917;SDS011;57203;42.672;23.334;2022-08-16T01:24:40;10.1;;;6.6;;
69917;SDS011;57203;42.672;23.334;2022-08-16T01:25:41;9.2;;;7.6;;
69917;SDS011;57203;42.672;23.334;2022-08-16T01:26:40;11.4;;;7.4;;
69917;SDS011;57203;42.672;23.334;2022-08-16T01:27:42;9.7;;;7.3;;
69917;SDS011;57203;42.672;23.334;2022-08-16T01:28:41;10.8;;;7.7;;
69917;SDS011;57203;42.672;23.334;2022-08-16T01:30:42;11.0;;;7.2;;
69917;SDS011;57203;42.672;23.334;2022-08-16T01:31:41;10.6;;;7.3;;
69917;SDS011;57203;42.672;23.334;2022-08-16T01:32:41;9.8;;;7.2;;
69917;SDS011;57203;42.672;23.334;2022-08-16T01:33:42;13.0;;;7.6;;
69917;SDS011;57203;42.672;23.334;2022-08-16T01:34:42;13.0;;;7.9;;
69917;SDS011;57203;42.672;23.334;2022-08-16T01:35:43;9.7;;;7.3;;
69917;SDS011;57203;42.672;23.334;2022-08-16T01:37:44;10.0;;;7.2;;
69917;SDS011;57203;42.672;23.334;2022-08-16T01:38:44;11.5;;;6.9;;
69917;SDS011;57203;42.672;23.334;2022-08-16T01:39:43;11.8;;;8.3;;
69917;SDS011;57203;42.672;23.334;2022-08-16T01:40:43;11.8;;;7.7;;
69917;SDS011;57203;42.672;23.334;2022-08-16T01:41:44;10.4;;;7.3;;
69917;SDS011;57203;42.672;23.334;2022-08-16T01:42:44;10.0;;;7.8;;
69917;SDS011;57203;42.672;23.334;2022-08-16T01:43:44;10.4;;;8.0;;
69917;SDS011;57203;42.672;23.334;2022-08-16T01:44:44;11.5;;;7.4;;
69917;SDS011;57203;42.672;23.334;2022-08-16T01:45:44;10.0;;;7.8;;
69917;SDS011;57203;42.672;23.334;2022-08-16T01:46:46;10.0;;;8.4;;
69917;SDS011;57203;42.672;23.334;2022-08-16T01:47:46;12.6;;;7.4;;
69917;SDS011;57203;42.672;23.334;2022-08-16T01:49:45;11.1;;;7.3;;
69917;SDS011;57203;42.672;23.334;2022-08-16T01:50:46;11.3;;;7.1;;
69917;SDS011;57203;42.672;23.334;2022-08-16T01:51:46;11.7;;;7.8;;
69917;SDS011;57203;42.672;23.334;2022-08-16T01:52:46;10.8;;;7.4;;
69917;SDS011;57203;42.672;23.334;2022-08-16T01:53:46;10.8;;;8.0;;
69917;SDS011;57203;42.672;23.334;2022-08-16T01:54:46;12.7;;;8.3;;
69917;SDS011;57203;42.672;23.334;2022-08-16T01:55:46;11.4;;;7.4;;
69917;SDS011;57203;42.672;23.334;2022-08-16T01:56:47;11.6;;;7.8;;
69917;SDS011;57203;42.672;23.334;2022-08-16T01:57:47;11.6;;;7.7;;
69917;SDS011;57203;42.672;23.334;2022-08-16T01:59:47;10.9;;;6.9;;
69917;SDS011;57203;42.672;23.334;2022-08-16T02:00:48;9.4;;;7.9;;
69917;SDS011;57203;42.672;23.334;2022-08-16T02:01:48;10.6;;;7.7;;
69917;SDS011;57203;42.672;23.334;2022-08-16T02:02:48;10.6;;;7.3;;
69917;SDS011;57203;42.672;23.334;2022-08-16T02:03:48;10.8;;;8.3;;
69917;SDS011;57203;42.672;23.334;2022-08-16T02:04:49;13.0;;;7.8;;
69917;SDS011;57203;42.672;23.334;2022-08-16T02:06:49;9.9;;;7.1;;
69917;SDS011;57203;42.672;23.334;2022-08-16T02:07:49;9.9;;;8.0;;
69917;SDS011;57203;42.672;23.334;2022-08-16T02:08:49;11.2;;;8.1;;
69917;SDS011;57203;42.672;23.334;2022-08-16T02:09:50;11.5;;;7.8;;
69917;SDS011;57203;42.672;23.334;2022-08-16T02:10:50;10.7;;;7.9;;
69917;SDS011;57203;42.672;23.334;2022-08-16T02:11:52;11.4;;;7.6;;
69917;SDS011;57203;42.672;23.334;2022-08-16T02:12:50;10.3;;;7.1;;
69917;SDS011;57203;42.672;23.334;2022-08-16T02:13:51;10.4;;;8.0;;
69917;SDS011;57203;42.672;23.334;2022-08-16T02:15:51;12.0;;;7.7;;
69917;SDS011;57203;42.672;23.334;2022-08-16T02:16:51;12.0;;;7.6;;
69917;SDS011;57203;42.672;23.334;2022-08-16T02:17:52;10.4;;;7.3;;
69917;SDS011;57203;42.672;23.334;2022-08-16T02:18:52;10.2;;;8.0;;
69917;SDS011;57203;42.672;23.334;2022-08-16T02:19:52;11.8;;;8.3;;
69917;SDS011;57203;42.672;23.334;2022-08-16T02:20:52;12.1;;;8.2;;
69917;SDS011;57203;42.672;23.334;2022-08-16T02:21:53;11.9;;;7.9;;
69917;SDS011;57203;42.672;23.334;2022-08-16T02:22:53;11.4;;;8.9;;
69917;SDS011;57203;42.672;23.334;2022-08-16T02:23:53;11.4;;;8.4;;
69917;SDS011;57203;42.672;23.334;2022-08-16T02:24:53;12.0;;;8.2;;
69917;SDS011;57203;42.672;23.334;2022-08-16T02:25:53;10.6;;;7.4;;
69917;SDS011;57203;42.672;23.334;2022-08-16T02:26:54;13.1;;;7.9;;
69917;SDS011;57203;42.672;23.334;2022-08-16T02:27:54;11.5;;;8.1;;
69917;SDS011;57203;42.672;23.334;2022-08-16T02:28:54;11.5;;;7.1;;
69917;SDS011;57203;42.672;23.334;2022-08-16T02:29:54;10.1;;;8.1;;
69917;SDS011;57203;42.672;23.334;2022-08-16T02:30:56;11.0;;;8.2;;
69917;SDS011;57203;42.672;23.334;2022-08-16T02:31:55;11.3;;;7.8;;
69917;SDS011;57203;42.672;23.334;2022-08-16T02:32:55;8.5;;;6.4;;
69917;SDS011;57203;42.672;23.334;2022-08-16T02:33:55;8.5;;;7.5;;
69917;SDS011;57203;42.672;23.334;2022-08-16T02:34:55;10.8;;;7.3;;
69917;SDS011;57203;42.672;23.334;2022-08-16T02:35:56;9.2;;;7.2;;
69917;SDS011;57203;42.672;23.334;2022-08-16T02:36:56;9.2;;;7.5;;
69917;SDS011;57203;42.672;23.334;2022-08-16T02:37:56;10.1;;;8.1;;
69917;SDS011;57203;42.672;23.334;2022-08-16T02:38:56;10.4;;;7.0;;
69917;SDS011;57203;42.672;23.334;2022-08-16T02:39:57;14.7;;;9.0;;
69917;SDS011;57203;42.672;23.334;2022-08-16T02:40:57;14.7;;;7.8;;
69917;SDS011;57203;42.672;23.334;2022-08-16T02:41:57;11.2;;;7.6;;
69917;SDS011;57203;42.672;23.334;2022-08-16T02:42:57;10.3;;;7.7;;
69917;SDS011;57203;42.672;23.334;2022-08-16T02:43:57;10.3;;;8.4;;
69917;SDS011;57203;42.672;23.334;2022-08-16T02:44:58;11.4;;;8.2;;
69917;SDS011;57203;42.672;23.334;2022-08-16T02:45:58;12.2;;;8.0;;
69917;SDS011;57203;42.672;23.334;2022-08-16T02:46:58;12.2;;;7.8;;
69917;SDS011;57203;42.672;23.334;2022-08-16T02:47:58;11.2;;;9.0;;
69917;SDS011;57203;42.672;23.334;2022-08-16T02:48:59;12.9;;;8.5;;
69917;SDS011;57203;42.672;23.334;2022-08-16T02:49:59;12.9;;;8.6;;
69917;SDS011;57203;42.672;23.334;2022-08-16T02:51:00;13.4;;;8.7;;
69917;SDS011;57203;42.672;23.334;2022-08-16T02:51:59;12.1;;;9.1;;
69917;SDS011;57203;42.672;23.334;2022-08-16T02:52:59;12.1;;;8.8;;
69917;SDS011;57203;42.672;23.334;2022-08-16T02:54:00;14.4;;;9.1;;
69917;SDS011;57203;42.672;23.334;2022-08-16T02:55:00;14.7;;;9.0;;
69917;SDS011;57203;42.672;23.334;2022-08-16T02:56:00;15.2;;;8.5;;
69917;SDS011;57203;42.672;23.334;2022-08-16T02:57:01;12.7;;;9.0;;
69917;SDS011;57203;42.672;23.334;2022-08-16T02:58:01;12.7;;;9.5;;
69917;SDS011;57203;42.672;23.334;2022-08-16T02:59:01;14.3;;;9.8;;
69917;SDS011;57203;42.672;23.334;2022-08-16T03:01:02;13.7;;;9.4;;
69917;SDS011;57203;42.672;23.334;2022-08-16T03:03:02;14.9;;;10.0;;
69917;SDS011;57203;42.672;23.334;2022-08-16T03:04:02;15.4;;;10.6;;
69917;SDS011;57203;42.672;23.334;2022-08-16T03:05:03;13.5;;;9.8;;
69917;SDS011;57203;42.672;23.334;2022-08-16T03:06:02;13.4;;;9.9;;
69917;SDS011;57203;42.672;23.334;2022-08-16T03:07:03;17.0;;;10.4;;
69917;SDS011;57203;42.672;23.334;2022-08-16T03:08:03;14.9;;;9.9;;
69917;SDS011;57203;42.672;23.334;2022-08-16T03:09:03;14.9;;;9.6;;
69917;SDS011;57203;42.672;23.334;2022-08-16T03:10:03;14.4;;;10.7;;
69917;SDS011;57203;42.672;23.334;2022-08-16T03:11:03;14.4;;;9.8;;
69917;SDS011;57203;42.672;23.334;2022-08-16T03:12:04;14.4;;;8.5;;
69917;SDS011;57203;42.672;23.334;2022-08-16T03:13:04;12.8;;;9.2;;
69917;SDS011;57203;42.672;23.334;2022-08-16T03:14:04;12.4;;;8.7;;
69917;SDS011;57203;42.672;23.334;2022-08-16T03:17:05;11.2;;;8.6;;
69917;SDS011;57203;42.672;23.334;2022-08-16T03:18:05;11.7;;;8.7;;
69917;SDS011;57203;42.672;23.334;2022-08-16T03:19:05;11.7;;;9.0;;
69917;SDS011;57203;42.672;23.334;2022-08-16T03:20:06;12.0;;;8.6;;
69917;SDS011;57203;42.672;23.334;2022-08-16T03:21:06;12.8;;;8.3;;
69917;SDS011;57203;42.672;23.334;2022-08-16T03:22:06;11.6;;;9.1;;
69917;SDS011;57203;42.672;23.334;2022-08-16T03:23:06;13.6;;;8.6;;
69917;SDS011;57203;42.672;23.334;2022-08-16T03:24:06;13.2;;;8.2;;
69917;SDS011;57203;42.672;23.334;2022-08-16T03:25:07;11.9;;;7.9;;
69917;SDS011;57203;42.672;23.334;2022-08-16T03:26:07;11.8;;;9.0;;
69917;SDS011;57203;42.672;23.334;2022-08-16T03:27:07;13.7;;;8.6;;
69917;SDS011;57203;42.672;23.334;2022-08-16T03:28:07;11.6;;;9.1;;
69917;SDS011;57203;42.672;23.334;2022-08-16T03:29:07;11.1;;;8.4;;
69917;SDS011;57203;42.672;23.334;2022-08-16T03:30:10;11.1;;;9.6;;
69917;SDS011;57203;42.672;23.334;2022-08-16T03:31:08;13.8;;;8.9;;
69917;SDS011;57203;42.672;23.334;2022-08-16T03:32:08;12.1;;;8.7;;
69917;SDS011;57203;42.672;23.334;2022-08-16T03:33:08;12.5;;;9.2;;
69917;SDS011;57203;42.672;23.334;2022-08-16T03:34:08;12.5;;;9.3;;
69917;SDS011;57203;42.672;23.334;2022-08-16T03:35:09;12.7;;;8.6;;
69917;SDS011;57203;42.672;23.334;2022-08-16T03:36:09;13.1;;;8.7;;
69917;SDS011;57203;42.672;23.334;2022-08-16T03:37:09;13.7;;;8.9;;
69917;SDS011;57203;42.672;23.334;2022-08-16T03:38:10;13.4;;;9.2;;
69917;SDS011;57203;42.672;23.334;2022-08-16T03:39:10;12.0;;;8.7;;
69917;SDS011;57203;42.672;23.334;2022-08-16T03:40:11;12.0;;;9.6;;
69917;SDS011;57203;42.672;23.334;2022-08-16T03:41:10;13.3;;;9.4;;
69917;SDS011;57203;42.672;23.334;2022-08-16T03:42:10;12.8;;;9.3;;
69917;SDS011;57203;42.672;23.334;2022-08-16T03:43:11;12.8;;;9.0;;
69917;SDS011;57203;42.672;23.334;2022-08-16T03:44:11;12.9;;;10.1;;
69917;SDS011;57203;42.672;23.334;2022-08-16T03:45:11;15.0;;;10.2;;
69917;SDS011;57203;42.672;23.334;2022-08-16T03:46:11;14.5;;;9.7;;
69917;SDS011;57203;42.672;23.334;2022-08-16T03:47:11;14.2;;;9.2;;
69917;SDS011;57203;42.672;23.334;2022-08-16T03:48:11;13.8;;;9.9;;
69917;SDS011;57203;42.672;23.334;2022-08-16T03:49:12;13.8;;;9.3;;
69917;SDS011;57203;42.672;23.334;2022-08-16T03:50:12;14.7;;;10.0;;
69917;SDS011;57203;42.672;23.334;2022-08-16T03:51:12;14.2;;;9.6;;
69917;SDS011;57203;42.672;23.334;2022-08-16T03:52:12;13.9;;;10.2;;
69917;SDS011;57203;42.672;23.334;2022-08-16T03:53:13;14.4;;;9.6;;
69917;SDS011;57203;42.672;23.334;2022-08-16T03:54:13;16.2;;;10.8;;
69917;SDS011;57203;42.672;23.334;2022-08-16T03:55:13;16.2;;;10.0;;
69917;SDS011;57203;42.672;23.334;2022-08-16T03:56:13;13.2;;;8.4;;
69917;SDS011;57203;42.672;23.334;2022-08-16T03:57:13;15.6;;;10.0;;
69917;SDS011;57203;42.672;23.334;2022-08-16T03:58:14;15.6;;;9.5;;
69917;SDS011;57203;42.672;23.334;2022-08-16T03:59:14;14.2;;;10.1;;
69917;SDS011;57203;42.672;23.334;2022-08-16T04:00:16;14.2;;;10.5;;
69917;SDS011;57203;42.672;23.334;2022-08-16T04:01:14;15.3;;;9.7;;
69917;SDS011;57203;42.672;23.334;2022-08-16T04:02:15;13.3;;;9.4;;
69917;SDS011;57203;42.672;23.334;2022-08-16T04:03:15;13.1;;;10.0;;
69917;SDS011;57203;42.672;23.334;2022-08-16T04:04:15;13.5;;;11.1;;
69917;SDS011;57203;42.672;23.334;2022-08-16T04:05:16;16.7;;;9.8;;
69917;SDS011;57203;42.672;23.334;2022-08-16T04:06:16;14.1;;;9.4;;
69917;SDS011;57203;42.672;23.334;2022-08-16T04:07:16;14.3;;;10.1;;
69917;SDS011;57203;42.672;23.334;2022-08-16T04:08:17;13.9;;;10.4;;
69917;SDS011;57203;42.672;23.334;2022-08-16T04:09:16;16.2;;;9.9;;
69917;SDS011;57203;42.672;23.334;2022-08-16T04:10:16;12.9;;;8.9;;
69917;SDS011;57203;42.672;23.334;2022-08-16T04:11:17;13.7;;;9.4;;
69917;SDS011;57203;42.672;23.334;2022-08-16T04:12:17;12.9;;;9.8;;
69917;SDS011;57203;42.672;23.334;2022-08-16T04:13:17;13.6;;;10.1;;
69917;SDS011;57203;42.672;23.334;2022-08-16T04:15:18;14.2;;;10.2;;
69917;SDS011;57203;42.672;23.334;2022-08-16T04:16:18;14.4;;;9.6;;
69917;SDS011;57203;42.672;23.334;2022-08-16T04:17:18;14.2;;;10.1;;
69917;SDS011;57203;42.672;23.334;2022-08-16T04:18:18;15.6;;;9.8;;
69917;SDS011;57203;42.672;23.334;2022-08-16T04:19:18;13.7;;;10.0;;
69917;SDS011;57203;42.672;23.334;2022-08-16T04:20:19;14.5;;;10.5;;
69917;SDS011;57203;42.672;23.334;2022-08-16T04:21:19;14.5;;;9.6;;
69917;SDS011;57203;42.672;23.334;2022-08-16T04:22:19;14.5;;;10.0;;
69917;SDS011;57203;42.672;23.334;2022-08-16T04:23:19;14.2;;;10.3;;
69917;SDS011;57203;42.672;23.334;2022-08-16T04:24:19;14.2;;;9.4;;
69917;SDS011;57203;42.672;23.334;2022-08-16T04:25:20;13.4;;;10.1;;
69917;SDS011;57203;42.672;23.334;2022-08-16T04:27:20;13.7;;;10.4;;
69917;SDS011;57203;42.672;23.334;2022-08-16T04:28:20;13.5;;;9.9;;
69917;SDS011;57203;42.672;23.334;2022-08-16T04:29:21;14.2;;;10.4;;
69917;SDS011;57203;42.672;23.334;2022-08-16T04:30:21;14.4;;;10.8;;
69917;SDS011;57203;42.672;23.334;2022-08-16T04:31:21;13.8;;;9.5;;
69917;SDS011;57203;42.672;23.334;2022-08-16T04:32:21;13.8;;;10.1;;
69917;SDS011;57203;42.672;23.334;2022-08-16T04:33:22;13.3;;;9.7;;
69917;SDS011;57203;42.672;23.334;2022-08-16T04:34:22;14.6;;;9.8;;
69917;SDS011;57203;42.672;23.334;2022-08-16T04:35:22;14.6;;;10.2;;
69917;SDS011;57203;42.672;23.334;2022-08-16T04:36:22;16.0;;;11.1;;
69917;SDS011;57203;42.672;23.334;2022-08-16T04:37:23;15.5;;;10.7;;
69917;SDS011;57203;42.672;23.334;2022-08-16T04:38:23;15.5;;;10.8;;
69917;SDS011;57203;42.672;23.334;2022-08-16T04:39:23;15.1;;;10.2;;
69917;SDS011;57203;42.672;23.334;2022-08-16T04:40:23;15.1;;;10.5;;
69917;SDS011;57203;42.672;23.334;2022-08-16T04:41:23;17.4;;;12.0;;
69917;SDS011;57203;42.672;23.334;2022-08-16T04:42:24;17.4;;;11.2;;
69917;SDS011;57203;42.672;23.334;2022-08-16T04:43:24;15.8;;;12.0;;
69917;SDS011;57203;42.672;23.334;2022-08-16T04:44:24;18.0;;;10.9;;
69917;SDS011;57203;42.672;23.334;2022-08-16T04:45:24;14.9;;;11.8;;
69917;SDS011;57203;42.672;23.334;2022-08-16T04:46:25;16.8;;;10.4;;
69917;SDS011;57203;42.672;23.334;2022-08-16T04:47:27;14.8;;;10.9;;
69917;SDS011;57203;42.672;23.334;2022-08-16T04:48:25;16.2;;;10.6;;
69917;SDS011;57203;42.672;23.334;2022-08-16T04:50:25;16.4;;;10.4;;
69917;SDS011;57203;42.672;23.334;2022-08-16T04:51:26;14.6;;;9.9;;
69917;SDS011;57203;42.672;23.334;2022-08-16T04:52:26;18.8;;;12.1;;
69917;SDS011;57203;42.672;23.334;2022-08-16T04:53:26;18.8;;;11.6;;
69917;SDS011;57203;42.672;23.334;2022-08-16T04:54:26;16.7;;;13.2;;
69917;SDS011;57203;42.672;23.334;2022-08-16T04:55:27;19.2;;;12.9;;
69917;SDS011;57203;42.672;23.334;2022-08-16T04:57:27;18.5;;;13.5;;
69917;SDS011;57203;42.672;23.334;2022-08-16T04:58:27;21.3;;;15.1;;
69917;SDS011;57203;42.672;23.334;2022-08-16T04:59:27;19.9;;;13.6;;
69917;SDS011;57203;42.672;23.334;2022-08-16T05:00:32;20.7;;;14.1;;
69917;SDS011;57203;42.672;23.334;2022-08-16T05:01:28;20.7;;;14.9;;
69917;SDS011;57203;42.672;23.334;2022-08-16T05:02:28;21.9;;;15.7;;
69917;SDS011;57203;42.672;23.334;2022-08-16T05:03:28;24.2;;;14.7;;
69917;SDS011;57203;42.672;23.334;2022-08-16T05:04:29;23.6;;;15.0;;
69917;SDS011;57203;42.672;23.334;2022-08-16T05:05:29;23.6;;;14.0;;
69917;SDS011;57203;42.672;23.334;2022-08-16T05:06:29;21.8;;;14.4;;
69917;SDS011;57203;42.672;23.334;2022-08-16T05:07:29;22.6;;;15.1;;
69917;SDS011;57203;42.672;23.334;2022-08-16T05:08:30;23.9;;;14.7;;
69917;SDS011;57203;42.672;23.334;2022-08-16T05:09:30;23.9;;;14.4;;
69917;SDS011;57203;42.672;23.334;2022-08-16T05:10:30;22.0;;;14.0;;
69917;SDS011;57203;42.672;23.334;2022-08-16T05:11:30;22.0;;;16.1;;
69917;SDS011;57203;42.672;23.334;2022-08-16T05:12:30;24.7;;;14.6;;
69917;SDS011;57203;42.672;23.334;2022-08-16T05:13:31;22.9;;;14.8;;
69917;SDS011;57203;42.672;23.334;2022-08-16T05:14:31;20.0;;;13.9;;
69917;SDS011;57203;42.672;23.334;2022-08-16T05:15:31;20.0;;;14.4;;
69917;SDS011;57203;42.672;23.334;2022-08-16T05:16:31;22.6;;;14.8;;
69917;SDS011;57203;42.672;23.334;2022-08-16T05:17:32;20.1;;;13.4;;
69917;SDS011;57203;42.672;23.334;2022-08-16T05:18:32;20.1;;;13.5;;
69917;SDS011;57203;42.672;23.334;2022-08-16T05:19:32;21.7;;;13.4;;
69917;SDS011;57203;42.672;23.334;2022-08-16T05:20:32;19.6;;;13.0;;
69917;SDS011;57203;42.672;23.334;2022-08-16T05:21:32;19.7;;;13.2;;
69917;SDS011;57203;42.672;23.334;2022-08-16T05:22:33;19.7;;;13.5;;
69917;SDS011;57203;42.672;23.334;2022-08-16T05:23:33;19.7;;;13.4;;
69917;SDS011;57203;42.672;23.334;2022-08-16T05:24:33;17.1;;;12.5;;
69917;SDS011;57203;42.672;23.334;2022-08-16T05:25:33;17.1;;;11.7;;
69917;SDS011;57203;42.672;23.334;2022-08-16T05:26:34;16.3;;;12.1;;
69917;SDS011;57203;42.672;23.334;2022-08-16T05:27:34;14.9;;;10.8;;
69917;SDS011;57203;42.672;23.334;2022-08-16T05:28:34;15.4;;;11.6;;
69917;SDS011;57203;42.672;23.334;2022-08-16T05:29:34;15.4;;;11.5;;
69917;SDS011;57203;42.672;23.334;2022-08-16T05:30:34;18.1;;;12.2;;
69917;SDS011;57203;42.672;23.334;2022-08-16T05:31:35;14.5;;;10.4;;
69917;SDS011;57203;42.672;23.334;2022-08-16T05:32:35;14.5;;;10.8;;
69917;SDS011;57203;42.672;23.334;2022-08-16T05:33:35;14.0;;;11.7;;
69917;SDS011;57203;42.672;23.334;2022-08-16T05:34:35;16.1;;;10.9;;
69917;SDS011;57203;42.672;23.334;2022-08-16T05:35:36;16.1;;;12.3;;
69917;SDS011;57203;42.672;23.334;2022-08-16T05:36:36;17.5;;;11.8;;
69917;SDS011;57203;42.672;23.334;2022-08-16T05:37:36;18.7;;;13.2;;
69917;SDS011;57203;42.672;23.334;2022-08-16T05:38:36;18.7;;;12.6;;
69917;SDS011;57203;42.672;23.334;2022-08-16T05:39:36;18.7;;;11.6;;
69917;SDS011;57203;42.672;23.334;2022-08-16T05:40:37;16.5;;;11.9;;
69917;SDS011;57203;42.672;23.334;2022-08-16T05:41:37;17.2;;;11.5;;
69917;SDS011;57203;42.672;23.334;2022-08-16T05:42:37;17.9;;;12.3;;
69917;SDS011;57203;42.672;23.334;2022-08-16T05:43:37;16.7;;;12.0;;
69917;SDS011;57203;42.672;23.334;2022-08-16T05:44:37;16.7;;;12.2;;
69917;SDS011;57203;42.672;23.334;2022-08-16T05:45:38;18.6;;;11.8;;
69917;SDS011;57203;42.672;23.334;2022-08-16T05:46:38;17.4;;;12.5;;
69917;SDS011;57203;42.672;23.334;2022-08-16T05:47:38;15.9;;;10.7;;
69917;SDS011;57203;42.672;23.334;2022-08-16T05:48:39;15.9;;;11.4;;
69917;SDS011;57203;42.672;23.334;2022-08-16T05:49:39;17.9;;;12.6;;
69917;SDS011;57203;42.672;23.334;2022-08-16T05:50:39;17.9;;;11.7;;
69917;SDS011;57203;42.672;23.334;2022-08-16T05:51:39;16.4;;;12.1;;
69917;SDS011;57203;42.672;23.334;2022-08-16T05:52:39;16.4;;;11.6;;
69917;SDS011;57203;42.672;23.334;2022-08-16T05:53:40;16.9;;;11.3;;
69917;SDS011;57203;42.672;23.334;2022-08-16T05:54:40;16.9;;;11.9;;
69917;SDS011;57203;42.672;23.334;2022-08-16T05:55:40;16.9;;;11.0;;
69917;SDS011;57203;42.672;23.334;2022-08-16T05:56:40;15.5;;;10.4;;
69917;SDS011;57203;42.672;23.334;2022-08-16T05:57:41;13.6;;;11.3;;
69917;SDS011;57203;42.672;23.334;2022-08-16T05:58:41;15.6;;;11.2;;
69917;SDS011;57203;42.672;23.334;2022-08-16T05:59:41;15.7;;;10.7;;
69917;SDS011;57203;42.672;23.334;2022-08-16T06:00:41;17.4;;;11.8;;
69917;SDS011;57203;42.672;23.334;2022-08-16T06:01:42;15.6;;;11.6;;
69917;SDS011;57203;42.672;23.334;2022-08-16T06:02:42;15.1;;;10.6;;
69917;SDS011;57203;42.672;23.334;2022-08-16T06:03:42;14.3;;;10.7;;
69917;SDS011;57203;42.672;23.334;2022-08-16T06:04:42;15.1;;;11.3;;
69917;SDS011;57203;42.672;23.334;2022-08-16T06:05:42;15.1;;;10.3;;
69917;SDS011;57203;42.672;23.334;2022-08-16T06:06:43;16.9;;;11.4;;
69917;SDS011;57203;42.672;23.334;2022-08-16T06:07:43;15.9;;;10.8;;
69917;SDS011;57203;42.672;23.334;2022-08-16T06:08:43;14.8;;;11.2;;
69917;SDS011;57203;42.672;23.334;2022-08-16T06:09:43;14.8;;;11.3;;
69917;SDS011;57203;42.672;23.334;2022-08-16T06:12:44;15.3;;;11.4;;
69917;SDS011;57203;42.672;23.334;2022-08-16T06:15:45;16.7;;;11.5;;
69917;SDS011;57203;42.672;23.334;2022-08-16T06:16:45;16.0;;;11.7;;
69917;SDS011;57203;42.672;23.334;2022-08-16T06:17:46;16.1;;;11.9;;
69917;SDS011;57203;42.672;23.334;2022-08-16T06:18:46;16.3;;;11.2;;
69917;SDS011;57203;42.672;23.334;2022-08-16T06:19:46;14.9;;;11.8;;
69917;SDS011;57203;42.672;23.334;2022-08-16T06:20:46;17.4;;;11.1;;
69917;SDS011;57203;42.672;23.334;2022-08-16T06:21:46;15.3;;;11.2;;
69917;SDS011;57203;42.672;23.334;2022-08-16T06:22:47;16.8;;;11.6;;
69917;SDS011;57203;42.672;23.334;2022-08-16T06:23:47;14.8;;;11.1;;
69917;SDS011;57203;42.672;23.334;2022-08-16T06:24:47;14.8;;;10.3;;
69917;SDS011;57203;42.672;23.334;2022-08-16T06:26:47;14.3;;;9.9;;
69917;SDS011;57203;42.672;23.334;2022-08-16T06:27:48;18.5;;;11.7;;
69917;SDS011;57203;42.672;23.334;2022-08-16T06:28:48;18.5;;;10.1;;